ADDS METAR Data INFO
IDs: Format: Raw Decoded Include TAF

Data at: 0038 UTC 23 Oct 2017

KFGN 230034Z AUTO 23011KT 10SM BKN110 13/M01 A2963 RMK AO2
KFGN 230013Z AUTO 24014G20KT 10SM OVC100 14/M02 A2962 RMK AO2
KFGN 222354Z AUTO 21013KT 10SM OVC090 13/M01 A2963 RMK AO2
KFGN 222333Z AUTO 21015G21KT 10SM OVC100 13/M01 A2963 RMK AO2
KFGN 222314Z AUTO 21010KT 10SM SCT100 13/00 A2963 RMK AO2
KFGN 222254Z AUTO 21015KT 10SM CLR 13/00 A2963 RMK AO2
KFGN 222233Z AUTO 21013G20KT 10SM CLR 14/01 A2963 RMK AO2
KFGN 222214Z AUTO 21014KT 10SM CLR 14/M01 A2964 RMK AO2
KFGN 222154Z AUTO 22017G23KT 10SM CLR 14/M01 A2964 RMK AO2
KFGN 222133Z AUTO 22016KT 10SM CLR 14/00 A2965 RMK AO2
KFGN 222114Z AUTO 22014G17KT 10SM CLR 14/01 A2966 RMK AO2
KFGN 222054Z AUTO 24018G22KT 10SM CLR 14/M01 A2966 RMK AO2
KFGN 222033Z AUTO 21014G23KT 10SM CLR 13/01 A2966 RMK AO2
KFGN 222014Z AUTO 23014G19KT 10SM CLR 13/M01 A2967 RMK AO2
KFGN 221954Z AUTO 23019G24KT 10SM CLR 13/M01 A2967 RMK AO2
KFGN 221933Z AUTO 25013G24KT 10SM CLR 13/M01 A2968 RMK AO2
KFGN 221914Z AUTO 24013G22KT 210V270 10SM CLR 12/M01 A2968 RMK AO2
KFGN 221854Z AUTO 26014G27KT 10SM CLR 12/M01 A2968 RMK AO2
KFGN 221833Z AUTO 24020G26KT 10SM CLR 12/M01 A2968 RMK AO2
KFGN 221814Z AUTO 25019G29KT 10SM CLR 11/M01 A2968 RMK AO2
KFGN 221754Z AUTO 24018G24KT 10SM CLR 11/01 A2969 RMK AO2
KFGN 221733Z AUTO 23018G24KT 10SM CLR 10/02 A2969 RMK AO2
KFGN 221714Z AUTO 23020G24KT 10SM CLR 09/02 A2969 RMK AO2
KFGN 221653Z AUTO 25015G22KT 10SM CLR 09/02 A2969 RMK AO2
KFGN 221633Z AUTO 25013KT 10SM CLR 09/02 A2969 RMK AO2
KFGN 221614Z AUTO 24016G21KT 10SM CLR 08/02 A2969 RMK AO2
KFGN 221553Z AUTO 23019G23KT 10SM SCT030 08/03 A2969 RMK AO2
KFGN 221533Z AUTO 24017KT 10SM SCT030 BKN035 08/03 A2968 RMK AO2
KFGN 221514Z AUTO 23018G25KT 10SM BKN036 08/03 A2968 RMK AO2
KFGN 221453Z AUTO 23016G27KT 10SM SCT029 OVC036 08/03 A2967 RMK AO2
KFGN 221434Z AUTO 23019G26KT 10SM SCT027 BKN033 OVC040 08/03 A2965 RMK AO2
KFGN 221414Z AUTO 23016G22KT 10SM OVC029 08/03 A2963 RMK AO2
KFGN 221353Z AUTO 23014G21KT 10SM OVC027 07/04 A2963 RMK AO2
KFGN 221334Z AUTO 23019G25KT 10SM SCT023 BKN028 OVC050 07/04 A2962 RMK AO2
KFGN 221313Z AUTO 23012G19KT 10SM SCT017 BKN024 OVC050 07/04 A2962 RMK AO2
KFGN 221253Z AUTO 24017G22KT 10SM SCT017 BKN023 OVC060 07/04 A2961 RMK AO2
KFGN 221234Z AUTO 23020G25KT 10SM SCT023 SCT028 OVC060 08/04 A2959 RMK AO2
KFGN 221213Z AUTO 23018G24KT 10SM SCT029 BKN046 OVC060 08/04 A2958 RMK AO2
KFGN 221153Z AUTO 22017G21KT 10SM SCT032 BKN040 OVC047 08/04 A2958 RMK AO2
KFGN 221134Z AUTO 22013G18KT 10SM BKN041 OVC070 07/04 A2959 RMK AO2
KFGN 221113Z AUTO 22012KT 10SM OVC070 07/04 A2960 RMK AO2
KFGN 221053Z AUTO 21013G17KT 10SM OVC060 07/05 A2960 RMK AO2
KFGN 221034Z AUTO 23013KT 10SM SCT049 OVC060 07/05 A2959 RMK AO2
KFGN 221013Z AUTO 23013KT 10SM SCT012 BKN049 OVC060 07/06 A2958 RMK AO2
KFGN 220954Z AUTO 24015G21KT 10SM -RA SCT010 BKN015 OVC035 08/06 A2957 RMK AO2
KFGN 220934Z AUTO 22014KT 7SM -RA SCT008 OVC013 08/06 A2957 RMK AO2
KFGN 220913Z AUTO 22010KT 7SM BKN010 BKN014 OVC022 08/07 A2958 RMK AO2
KFGN 220854Z AUTO 22011KT 7SM BKN014 OVC022 08/07 A2958 RMK AO2
KFGN 220834Z AUTO 23013KT 7SM SCT017 OVC022 09/06 A2958 RMK AO2
KFGN 220813Z AUTO 22012KT 10SM BKN020 BKN026 OVC039 09/06 A2958 RMK AO2
KFGN 220754Z AUTO 23014KT 10SM SCT020 BKN026 OVC041 09/06 A2957 RMK AO2
KFGN 220734Z AUTO 23012KT 10SM SCT025 BKN029 OVC038 09/06 A2958 RMK AO2
KFGN 220713Z AUTO 22012KT 10SM SCT021 BKN027 OVC036 10/06 A2957 RMK AO2
KFGN 220654Z AUTO 22015G18KT 10SM BKN025 OVC070 10/06 A2956 RMK AO2
KFGN 220634Z AUTO 21011KT 10SM OVC070 10/06 A2956 RMK AO2
KFGN 220613Z AUTO 22010KT 10SM BKN070 OVC085 10/06 A2955 RMK AO2
KFGN 220554Z AUTO 21009KT 10SM SCT070 OVC085 10/07 A2955 RMK AO2
KFGN 220534Z AUTO 21006KT 10SM OVC085 10/07 A2954 RMK AO2
KFGN 220513Z AUTO 21006KT 10SM OVC085 10/06 A2954 RMK AO2
KFGN 220454Z AUTO 21008KT 10SM OVC085 11/07 A2955 RMK AO2
KFGN 220433Z AUTO 21010KT 10SM BKN085 11/06 A2954 RMK AO2
KFGN 220413Z AUTO 22009KT 10SM CLR 11/06 A2953 RMK AO2
KFGN 220354Z AUTO 22009KT 10SM CLR 11/06 A2953 RMK AO2
KFGN 220333Z AUTO 24011KT 10SM CLR 12/06 A2954 RMK AO2
KFGN 220313Z AUTO 25011KT 10SM SCT065 13/06 A2953 RMK AO2
KFGN 220254Z AUTO 24008KT 10SM OVC065 13/07 A2952 RMK AO2
KFGN 220233Z AUTO 22009KT 10SM OVC050 13/07 A2953 RMK AO2
KFGN 220213Z AUTO 24009KT 10SM OVC050 13/07 A2952 RMK AO2
KFGN 220154Z AUTO 23009KT 10SM BKN050 OVC060 13/07 A2950 RMK AO2
KFGN 220133Z AUTO 20008KT 10SM OVC050 12/09 A2950 RMK AO2
KFGN 220113Z AUTO 17010KT 10SM OVC047 12/09 A2949 RMK AO2
KFGN 220054Z AUTO 16004KT 10SM OVC041 12/09 A2949 RMK AO2
KFGN 220033Z AUTO 17004KT 10SM OVC039 12/09 A2948 RMK AO2
KFGN 220014Z AUTO 17008KT 10SM BKN037 OVC070 12/09 A2949 RMK AO2
KFGN 212354Z AUTO 18008KT 10SM OVC035 12/09 A2950 RMK AO2
KFGN 212333Z AUTO 18008KT 7SM OVC031 12/11 A2950 RMK AO2
KFGN 212314Z AUTO 17010KT 4SM BR OVC031 12/12 A2948 RMK AO2
KFGN 212254Z AUTO 17011KT 5SM BR OVC029 12/12 A2947 RMK AO2
KFGN 212233Z AUTO 17011KT 1 1/4SM -DZ SCT003 BKN011 OVC024 13/12 A2947 RMK AO2 VIS 3/4V3
KFGN 212214Z AUTO 18008KT 1 3/4SM DZ OVC011 12/11 A2947 RMK AO2
KFGN 212154Z AUTO 17009KT 4SM BR BKN013 OVC019 12/12 A2946 RMK AO2
KFGN 212133Z AUTO 16011KT 5SM BR OVC017 12/12 A2945 RMK AO2
KFGN 212114Z AUTO 17009KT 7SM OVC019 12/11 A2945 RMK AO2
KFGN 212054Z AUTO 16010KT 4SM -DZ BKN021 OVC025 13/11 A2944 RMK AO2
KFGN 212033Z AUTO 18010KT 10SM OVC021 13/11 A2944 RMK AO2
KFGN 212014Z AUTO 20008KT 10SM OVC021 13/11 A2944 RMK AO2
KFGN 211954Z AUTO 19007KT 10SM OVC023 13/11 A2943 RMK AO2
KFGN 211933Z AUTO 16015KT 10SM OVC023 13/11 A2943 RMK AO2
KFGN 211914Z AUTO 16014KT 10SM OVC025 14/11 A2943 RMK AO2
KFGN 211853Z AUTO 15014KT 10SM OVC025 13/11 A2943 RMK AO2
KFGN 211833Z AUTO 15012KT 10SM OVC025 13/11 A2943 RMK AO2
KFGN 211814Z AUTO 15014KT 10SM OVC025 13/11 A2943 RMK AO2
KFGN 211754Z AUTO 15013KT 10SM OVC025 13/11 A2943 RMK AO2
KFGN 211733Z AUTO 15012KT 10SM OVC025 13/11 A2943 RMK AO2
KFGN 211714Z AUTO 15013KT 10SM OVC025 13/11 A2944 RMK AO2
KFGN 211653Z AUTO 15015KT 10SM OVC025 13/11 A2944 RMK AO2
KFGN 211633Z AUTO 15016KT 10SM OVC025 13/11 A2943 RMK AO2
KFGN 211614Z AUTO 16017KT 10SM OVC025 13/11 A2944 RMK AO2
KFGN 211553Z AUTO 16018KT 10SM OVC027 13/11 A2943 RMK AO2
KFGN 211533Z AUTO 15018KT 10SM BKN027 OVC036 14/12 A2943 RMK AO2
KFGN 211514Z AUTO 15018KT 10SM SCT027 OVC035 14/12 A2943 RMK AO2
KFGN 211453Z AUTO 15019KT 10SM OVC035 14/12 A2942 RMK AO2
KFGN 211434Z AUTO 15019KT 10SM BKN033 14/12 A2942 RMK AO2
KFGN 211414Z AUTO 15018KT 10SM CLR 14/11 A2942 RMK AO2
KFGN 211353Z AUTO 15017KT CLR 14/11 A2942 RMK AO2
KFGN 211334Z AUTO 15017KT 10SM CLR 14/11 A2942 RMK AO2
KFGN 211314Z AUTO 15016KT 10SM CLR 14/11 A2942 RMK AO2
KFGN 211253Z AUTO 15016KT 10SM CLR 14/11 A2942 RMK AO2